createdAt,value
2022-08-16T00:01:35.660Z,12.13
2022-08-16T00:04:12.543Z,10.70
2022-08-16T00:06:44.147Z,11.52
2022-08-16T00:09:15.582Z,12.88
2022-08-16T00:11:52.803Z,11.45
2022-08-16T00:14:31.169Z,11.73
2022-08-16T00:17:18.809Z,11.90
2022-08-16T00:19:53.633Z,12.00
2022-08-16T00:22:27.985Z,11.98
2022-08-16T00:24:59.381Z,11.88
2022-08-16T00:27:30.986Z,11.95
2022-08-16T00:30:09.009Z,11.93
2022-08-16T00:32:54.036Z,11.95
2022-08-16T00:35:35.047Z,13.35
2022-08-16T00:38:41.487Z,10.38
2022-08-16T00:41:00.553Z,11.65
2022-08-16T00:43:43.298Z,11.73
2022-08-16T00:46:35.921Z,11.02
2022-08-16T00:49:17.259Z,11.95
2022-08-16T00:51:54.808Z,11.80
2022-08-16T00:54:29.495Z,13.35
2022-08-16T00:57:05.022Z,10.25
2022-08-16T00:59:40.873Z,11.73
2022-08-16T01:02:30.631Z,13.05
2022-08-16T01:05:11.375Z,12.07
2022-08-16T01:07:51.031Z,11.85
2022-08-16T01:10:32.781Z,12.38
2022-08-16T01:13:08.196Z,12.10
2022-08-16T01:15:47.801Z,13.32
2022-08-16T01:18:40.582Z,12.10
2022-08-16T01:21:36.150Z,12.93
2022-08-16T01:24:52.573Z,11.40
2022-08-16T01:27:29.609Z,12.88
2022-08-16T01:30:04.222Z,12.10
2022-08-16T01:32:38.612Z,12.50
2022-08-16T01:35:21.538Z,11.38
2022-08-16T01:37:56.290Z,12.80
2022-08-16T01:40:30.651Z,14.15
2022-08-16T01:43:01.994Z,13.10
2022-08-16T01:45:40.620Z,12.98
2022-08-16T01:48:19.962Z,12.63
2022-08-16T01:51:16.483Z,13.25
2022-08-16T01:53:44.240Z,14.45
2022-08-16T01:56:24.608Z,14.40
2022-08-16T01:58:59.849Z,11.93
2022-08-16T02:01:32.539Z,13.25
2022-08-16T02:04:10.595Z,13.63
2022-08-16T02:06:46.691Z,11.48
2022-08-16T02:09:21.413Z,14.43
2022-08-16T02:11:57.856Z,14.80
2022-08-16T02:14:30.811Z,12.20
2022-08-16T02:17:05.980Z,13.02
2022-08-16T02:19:59.212Z,13.55
2022-08-16T02:22:34.072Z,15.30
2022-08-16T02:25:14.652Z,13.70
2022-08-16T02:27:47.949Z,14.43
2022-08-16T02:30:37.274Z,14.18
2022-08-16T02:33:15.668Z,12.52
2022-08-16T02:35:49.892Z,13.63
2022-08-16T02:38:29.087Z,13.93
2022-08-16T02:41:07.275Z,14.02
2022-08-16T02:43:41.439Z,14.25
2022-08-16T02:46:12.824Z,14.50
2022-08-16T02:48:47.432Z,14.38
2022-08-16T02:51:23.504Z,14.23
2022-08-16T02:53:54.967Z,13.48
2022-08-16T02:56:32.245Z,15.05
2022-08-16T02:59:11.301Z,14.13
2022-08-16T03:01:43.332Z,15.25
2022-08-16T03:04:39.907Z,13.68
2022-08-16T03:07:07.273Z,14.20
2022-08-16T03:09:41.108Z,15.15
2022-08-16T03:12:16.563Z,15.00
2022-08-16T03:14:49.549Z,14.73
2022-08-16T03:17:21.274Z,15.23
2022-08-16T03:19:59.807Z,14.70
2022-08-16T03:22:34.364Z,16.35
2022-08-16T03:25:09.179Z,15.88
2022-08-16T03:27:42.871Z,15.95
2022-08-16T03:30:19.951Z,14.48
2022-08-16T03:32:52.142Z,15.18
2022-08-16T03:35:32.600Z,13.88
2022-08-16T03:38:34.767Z,13.40
2022-08-16T03:40:59.505Z,16.48
2022-08-16T03:43:51.932Z,17.90
2022-08-16T03:46:45.103Z,16.25
2022-08-16T03:49:15.041Z,17.02
2022-08-16T03:51:46.631Z,16.40
2022-08-16T03:54:17.963Z,16.33
2022-08-16T03:56:57.008Z,15.88
2022-08-16T03:59:31.239Z,17.10
2022-08-16T04:02:07.185Z,16.27
2022-08-16T04:04:43.434Z,17.85
2022-08-16T04:07:15.809Z,16.52
2022-08-16T04:09:47.114Z,18.63
2022-08-16T04:12:54.347Z,18.27
2022-08-16T04:15:16.810Z,18.45
2022-08-16T04:17:48.373Z,17.08
2022-08-16T04:20:31.651Z,17.35
2022-08-16T04:23:08.084Z,18.85
2022-08-16T04:25:39.530Z,17.52
2022-08-16T04:28:29.205Z,19.23
2022-08-16T04:31:04.563Z,18.33
2022-08-16T04:33:38.780Z,17.13
2022-08-16T04:36:22.972Z,19.27
2022-08-16T04:38:55.173Z,19.77
2022-08-16T04:41:32.271Z,18.77
2022-08-16T04:44:32.379Z,18.83
2022-08-16T04:47:02.676Z,19.70
2022-08-16T04:49:47.909Z,18.27
2022-08-16T04:52:33.936Z,18.83
2022-08-16T04:55:12.019Z,19.48
2022-08-16T04:57:44.645Z,19.23
2022-08-16T05:00:32.470Z,21.05
2022-08-16T05:03:10.931Z,20.73
2022-08-16T05:05:45.446Z,20.98
2022-08-16T05:08:31.363Z,20.08
2022-08-16T05:11:08.513Z,19.48
2022-08-16T05:13:44.147Z,20.95
2022-08-16T05:16:24.502Z,22.08
2022-08-16T05:19:00.003Z,21.45
2022-08-16T05:21:38.576Z,18.75
2022-08-16T05:24:10.145Z,20.52
2022-08-16T05:26:49.616Z,20.88
2022-08-16T05:29:22.979Z,21.75
2022-08-16T05:31:56.393Z,20.50
2022-08-16T05:34:28.281Z,20.33
2022-08-16T05:37:00.265Z,18.40
2022-08-16T05:39:33.415Z,17.20
2022-08-16T05:42:08.983Z,19.13
2022-08-16T05:44:40.874Z,19.58
2022-08-16T05:47:15.256Z,19.67
2022-08-16T05:49:50.678Z,20.40
2022-08-16T05:52:22.602Z,19.73
2022-08-16T05:55:01.522Z,19.10
2022-08-16T05:57:34.536Z,19.40
2022-08-16T06:00:10.587Z,19.45
2022-08-16T06:02:42.379Z,18.80
2022-08-16T06:05:14.656Z,19.95
2022-08-16T06:07:58.413Z,20.48
2022-08-16T06:10:33.007Z,19.17
2022-08-16T06:13:04.824Z,18.38
2022-08-16T06:15:36.127Z,18.83
2022-08-16T06:18:07.861Z,19.40
2022-08-16T06:20:55.899Z,17.92
2022-08-16T06:23:27.488Z,16.77
2022-08-16T06:26:07.590Z,16.48
2022-08-16T06:28:40.007Z,16.13
2022-08-16T06:31:13.693Z,15.73
2022-08-16T06:33:45.555Z,15.95
2022-08-16T06:36:17.413Z,15.95
2022-08-16T06:38:56.644Z,15.05
2022-08-16T06:41:28.225Z,15.40
2022-08-16T06:44:20.866Z,14.48
2022-08-16T06:46:52.992Z,15.13
2022-08-16T06:49:24.477Z,15.75
2022-08-16T06:52:03.195Z,14.73
2022-08-16T06:54:35.628Z,15.35
2022-08-16T06:57:11.796Z,15.70
2022-08-16T06:59:52.342Z,14.18
2022-08-16T07:02:33.011Z,14.27
2022-08-16T07:05:14.922Z,13.77
2022-08-16T07:07:50.845Z,14.43
2022-08-16T07:10:25.735Z,15.18
2022-08-16T07:13:04.409Z,13.30
2022-08-16T07:15:49.954Z,13.88
2022-08-16T07:18:24.482Z,12.70
2022-08-16T07:21:01.733Z,13.82
2022-08-16T07:23:38.947Z,12.65
2022-08-16T07:26:24.766Z,13.35
2022-08-16T07:28:56.928Z,12.38
2022-08-16T07:31:37.752Z,13.00
2022-08-16T07:34:10.000Z,13.18
2022-08-16T07:36:41.697Z,14.32
2022-08-16T07:39:16.486Z,12.45
2022-08-16T07:41:47.906Z,12.75
2022-08-16T07:44:19.217Z,13.35
2022-08-16T07:46:55.550Z,12.20
2022-08-16T07:49:32.501Z,13.05
2022-08-16T07:52:19.078Z,11.82
2022-08-16T07:54:53.288Z,11.38
2022-08-16T07:57:25.319Z,13.02
2022-08-16T07:59:57.675Z,12.98
2022-08-16T08:02:30.039Z,12.73
2022-08-16T08:05:03.636Z,12.05
2022-08-16T08:07:36.817Z,12.02
2022-08-16T08:10:11.133Z,12.07
2022-08-16T08:12:44.448Z,12.15
2022-08-16T08:15:25.520Z,10.90
2022-08-16T08:18:20.910Z,11.18
2022-08-16T08:20:59.362Z,10.63
2022-08-16T08:23:31.148Z,10.50
2022-08-16T08:26:05.320Z,9.75
2022-08-16T08:28:40.389Z,9.43
2022-08-16T08:31:16.287Z,9.40
2022-08-16T08:33:51.691Z,9.75
2022-08-16T08:36:33.278Z,9.30
2022-08-16T08:39:12.698Z,9.18
2022-08-16T08:41:46.615Z,8.73
2022-08-16T08:44:27.952Z,8.60
2022-08-16T08:47:05.618Z,7.70
2022-08-16T08:49:46.416Z,7.80
2022-08-16T08:52:33.552Z,7.70
2022-08-16T08:55:12.678Z,6.68
2022-08-16T08:57:47.591Z,6.63
2022-08-16T09:00:22.880Z,7.82
2022-08-16T09:02:58.615Z,6.43
2022-08-16T09:05:35.563Z,6.90
2022-08-16T09:08:07.444Z,5.93
2022-08-16T09:10:40.852Z,6.03
2022-08-16T09:13:12.468Z,6.00
2022-08-16T09:15:44.336Z,6.45
2022-08-16T09:18:24.757Z,5.60
2022-08-16T09:21:00.198Z,5.95
2022-08-16T09:23:36.420Z,5.57
2022-08-16T09:26:44.433Z,5.30
2022-08-16T09:29:14.988Z,5.63
2022-08-16T09:31:53.414Z,5.60
2022-08-16T09:34:25.460Z,6.38
2022-08-16T09:36:57.922Z,5.32
2022-08-16T09:39:31.755Z,5.68
2022-08-16T09:42:15.533Z,5.65
2022-08-16T09:45:12.044Z,6.55
2022-08-16T09:47:56.255Z,6.20
2022-08-16T09:50:37.155Z,5.80
2022-08-16T09:53:20.920Z,5.22
2022-08-16T09:55:56.946Z,5.80
2022-08-16T09:58:37.875Z,5.43
2022-08-16T10:01:13.323Z,5.47
2022-08-16T10:04:01.524Z,6.40
2022-08-16T10:06:35.417Z,5.68
2022-08-16T10:09:11.213Z,5.88
2022-08-16T10:12:11.309Z,5.65
2022-08-16T10:14:46.008Z,5.25
2022-08-16T10:17:17.636Z,5.20
2022-08-16T10:19:51.535Z,5.30
2022-08-16T10:22:23.299Z,5.20
2022-08-16T10:24:55.998Z,5.47
2022-08-16T10:27:48.579Z,5.95
2022-08-16T10:30:26.077Z,4.85
2022-08-16T10:33:00.028Z,5.50
2022-08-16T10:35:32.860Z,5.32
2022-08-16T10:38:06.802Z,5.00
2022-08-16T10:40:41.253Z,4.72
2022-08-16T10:43:18.511Z,5.30
2022-08-16T10:46:00.991Z,5.20
2022-08-16T10:48:32.693Z,4.85
2022-08-16T10:51:05.378Z,4.45
2022-08-16T10:53:39.638Z,4.25
2022-08-16T10:56:44.279Z,4.77
2022-08-16T11:07:43.703Z,4.82
2022-08-16T11:13:58.359Z,6.07
2022-08-16T11:19:13.153Z,5.45
2022-08-16T11:24:42.289Z,6.35
2022-08-16T11:27:24.176Z,6.25
2022-08-16T11:30:09.113Z,4.78
2022-08-16T11:32:44.475Z,4.60
2022-08-16T11:35:43.350Z,4.07
2022-08-16T11:38:47.456Z,3.58
2022-08-16T11:41:09.638Z,3.30
2022-08-16T11:43:43.852Z,3.22
2022-08-16T11:46:43.214Z,3.13
2022-08-16T11:49:13.244Z,3.20
2022-08-16T11:51:45.559Z,3.38
2022-08-16T11:54:20.647Z,3.85
2022-08-16T11:56:56.978Z,3.22
2022-08-16T11:59:29.284Z,3.45
2022-08-16T12:02:30.924Z,3.30
2022-08-16T12:04:52.157Z,3.47
2022-08-16T12:07:24.945Z,4.65
2022-08-16T12:09:56.607Z,4.88
2022-08-16T12:12:28.457Z,5.40
2022-08-16T12:15:00.708Z,3.95
2022-08-16T12:17:32.680Z,4.20
2022-08-16T12:20:12.786Z,4.55
2022-08-16T12:22:51.102Z,4.93
2022-08-16T12:25:26.684Z,4.68
2022-08-16T12:27:59.694Z,4.30
2022-08-16T12:30:39.159Z,4.55
2022-08-16T12:33:14.519Z,4.90
2022-08-16T12:35:56.694Z,4.38
2022-08-16T12:38:40.767Z,3.97
2022-08-16T12:41:19.103Z,4.30
2022-08-16T12:43:57.079Z,3.97
2022-08-16T12:46:34.169Z,4.22
2022-08-16T12:49:06.347Z,5.30
2022-08-16T12:51:58.130Z,4.05
2022-08-16T12:54:31.656Z,4.10
2022-08-16T12:57:14.191Z,4.57
2022-08-16T12:59:45.769Z,3.97
2022-08-16T13:02:22.657Z,3.78
2022-08-16T13:05:07.036Z,3.88
2022-08-16T13:07:45.376Z,3.60
2022-08-16T13:10:36.852Z,3.95
2022-08-16T13:13:10.067Z,3.60
2022-08-16T13:15:55.579Z,3.65
2022-08-16T13:18:34.225Z,4.05
2022-08-16T13:21:08.397Z,4.63
2022-08-16T13:23:43.600Z,3.80
2022-08-16T13:26:17.324Z,3.97
2022-08-16T13:28:49.200Z,3.50
2022-08-16T13:31:20.577Z,4.13
2022-08-16T13:33:51.964Z,3.85
2022-08-16T13:36:48.041Z,3.47
2022-08-16T13:39:17.395Z,3.70
2022-08-16T13:41:54.031Z,3.75
2022-08-16T13:44:36.015Z,4.47
2022-08-16T13:47:17.356Z,3.95
2022-08-16T13:49:48.660Z,4.00
2022-08-16T13:52:19.982Z,4.38
2022-08-16T13:54:51.635Z,4.32
2022-08-16T13:57:23.404Z,4.18
2022-08-16T14:00:19.528Z,4.13
2022-08-16T14:02:55.764Z,3.95
2022-08-16T14:05:30.387Z,4.30
2022-08-16T14:08:01.792Z,4.40
2022-08-16T14:10:34.937Z,3.97
2022-08-16T14:13:07.117Z,4.85
2022-08-16T14:15:45.103Z,5.57
2022-08-16T14:18:19.895Z,6.82
2022-08-16T14:20:51.913Z,5.93
2022-08-16T14:23:24.367Z,6.47
2022-08-16T14:25:57.296Z,5.88
2022-08-16T14:28:28.709Z,6.05
2022-08-16T14:31:00.146Z,6.68
2022-08-16T14:33:32.038Z,5.93
2022-08-16T14:36:05.426Z,5.43
2022-08-16T14:38:37.496Z,5.65
2022-08-16T14:41:10.864Z,6.57
2022-08-16T14:43:42.442Z,5.90
2022-08-16T14:46:13.772Z,5.82
2022-08-16T14:48:46.813Z,5.93
2022-08-16T14:51:18.554Z,5.30
2022-08-16T14:53:52.679Z,4.93
2022-08-16T14:56:42.726Z,5.47
2022-08-16T14:59:14.680Z,4.50
2022-08-16T15:01:59.936Z,4.95
2022-08-16T15:04:40.023Z,5.68
2022-08-16T15:07:23.222Z,5.88
2022-08-16T15:10:00.778Z,5.30
2022-08-16T15:12:36.017Z,4.88
2022-08-16T15:15:12.753Z,4.95
2022-08-16T15:17:54.067Z,4.88
2022-08-16T15:20:30.585Z,4.88
2022-08-16T15:23:07.284Z,4.72
2022-08-16T15:25:42.060Z,4.85
2022-08-16T15:28:31.280Z,4.40
2022-08-16T15:31:09.216Z,3.97
2022-08-16T15:33:50.603Z,4.40
2022-08-16T15:36:26.480Z,4.45
2022-08-16T15:39:06.999Z,4.40
2022-08-16T15:41:58.242Z,4.38
2022-08-16T15:44:44.128Z,3.90
2022-08-16T15:47:26.288Z,4.03
2022-08-16T15:49:57.755Z,3.42
2022-08-16T15:52:32.934Z,3.25
2022-08-16T15:57:44.838Z,3.63
2022-08-16T16:00:17.246Z,3.05
2022-08-16T16:03:14.912Z,4.00
2022-08-16T16:05:49.749Z,3.45
2022-08-16T16:08:26.490Z,4.35
2022-08-16T16:11:04.054Z,3.30
2022-08-16T16:13:37.189Z,3.33
2022-08-16T16:16:13.365Z,3.38
2022-08-16T16:18:51.993Z,3.75
2022-08-16T16:21:25.633Z,3.65
2022-08-16T16:23:58.956Z,3.47
2022-08-16T16:26:34.268Z,4.10
2022-08-16T16:29:15.025Z,3.60
2022-08-16T16:31:59.738Z,3.90
2022-08-16T16:34:35.426Z,4.13
2022-08-16T16:37:10.034Z,3.33
2022-08-16T16:39:42.179Z,3.63
2022-08-16T16:42:29.423Z,3.67
2022-08-16T16:45:03.862Z,4.20
2022-08-16T16:47:40.657Z,3.92
2022-08-16T16:50:29.037Z,3.22
2022-08-16T16:53:00.436Z,3.70
2022-08-16T16:55:33.136Z,3.75
2022-08-16T16:58:35.306Z,4.20
2022-08-16T17:01:08.109Z,3.80
2022-08-16T17:03:39.483Z,3.90
2022-08-16T17:06:10.839Z,4.75
2022-08-16T17:08:42.991Z,5.32
2022-08-16T17:11:15.372Z,5.40
2022-08-16T17:13:46.715Z,5.57
2022-08-16T17:16:19.142Z,5.97
2022-08-16T17:19:15.024Z,5.93
2022-08-16T17:21:43.106Z,6.30
2022-08-16T17:24:18.014Z,5.95
2022-08-16T17:27:08.309Z,5.55
2022-08-16T17:29:42.754Z,5.03
2022-08-16T17:32:44.351Z,5.30
2022-08-16T17:35:18.121Z,5.10
2022-08-16T17:37:54.363Z,5.55
2022-08-16T17:40:45.813Z,4.85
2022-08-16T17:43:23.508Z,5.15
2022-08-16T17:45:56.046Z,5.10
2022-08-16T17:48:30.709Z,4.68
2022-08-16T17:51:03.531Z,5.35
2022-08-16T17:53:35.778Z,4.75
2022-08-16T17:56:07.121Z,4.57
2022-08-16T17:58:38.546Z,4.60
2022-08-16T18:01:10.276Z,5.18
2022-08-16T18:04:07.180Z,5.10
2022-08-16T18:06:33.626Z,5.30
2022-08-16T18:09:06.950Z,6.72
2022-08-16T18:11:41.160Z,5.07
2022-08-16T18:14:14.932Z,5.20
2022-08-16T18:16:47.925Z,4.80
2022-08-16T18:19:19.254Z,4.68
2022-08-16T18:22:09.285Z,4.55
2022-08-16T18:24:40.667Z,4.90
2022-08-16T18:27:26.485Z,5.10
2022-08-16T18:29:58.345Z,4.47
2022-08-16T18:32:29.648Z,4.90
2022-08-16T18:35:00.958Z,5.15
2022-08-16T18:37:32.252Z,5.07
2022-08-16T18:40:05.639Z,4.75
2022-08-16T18:42:37.363Z,5.13
2022-08-16T18:45:09.361Z,5.20
2022-08-16T18:47:40.684Z,5.00
2022-08-16T18:50:11.984Z,4.90
2022-08-16T18:52:51.441Z,5.22
2022-08-16T18:55:25.464Z,5.30
2022-08-16T18:57:58.202Z,5.43
2022-08-16T19:00:45.593Z,5.80
2022-08-16T19:03:31.917Z,5.57
2022-08-16T19:06:11.120Z,5.97
2022-08-16T19:08:45.343Z,5.93
2022-08-16T19:11:21.570Z,6.18
2022-08-16T19:13:53.074Z,5.40
2022-08-16T19:16:25.565Z,5.95
2022-08-16T19:18:56.886Z,5.18
2022-08-16T19:21:28.279Z,5.57
2022-08-16T19:23:59.709Z,5.00
2022-08-16T19:26:31.593Z,4.95
2022-08-16T19:29:08.468Z,5.85
2022-08-16T19:31:40.350Z,5.95
2022-08-16T19:34:13.117Z,5.65
2022-08-16T19:36:44.446Z,5.13
2022-08-16T19:39:16.369Z,5.88
2022-08-16T19:41:53.182Z,5.88
2022-08-16T19:44:28.763Z,5.93
2022-08-16T19:47:00.138Z,5.65
2022-08-16T19:49:31.464Z,6.13
2022-08-16T19:52:14.057Z,5.80
2022-08-16T19:54:47.351Z,6.15
2022-08-16T19:57:20.316Z,6.55
2022-08-16T19:59:53.155Z,6.80
2022-08-16T20:02:36.058Z,6.82
2022-08-16T20:05:08.435Z,6.30
2022-08-16T20:07:40.000Z,6.07
2022-08-16T20:10:13.248Z,6.47
2022-08-16T20:13:01.804Z,6.30
2022-08-16T20:15:34.258Z,7.68
2022-08-16T20:18:17.232Z,8.05
2022-08-16T20:20:56.914Z,7.35
2022-08-16T20:23:28.309Z,7.28
2022-08-16T20:25:59.652Z,7.28
2022-08-16T20:28:40.133Z,8.07
2022-08-16T20:31:23.592Z,7.72
2022-08-16T20:33:54.974Z,7.50
2022-08-16T20:36:26.319Z,7.40
2022-08-16T20:38:59.889Z,7.68
2022-08-16T20:41:31.684Z,6.57
2022-08-16T20:44:03.211Z,6.97
2022-08-16T20:46:34.523Z,7.50
2022-08-16T20:49:11.295Z,6.93
2022-08-16T20:51:46.598Z,6.95
2022-08-16T20:54:21.085Z,6.68
2022-08-16T20:56:52.485Z,7.47
2022-08-16T20:59:24.916Z,7.43
2022-08-16T21:01:57.566Z,7.18
2022-08-16T21:04:29.697Z,6.00
2022-08-16T21:07:01.062Z,7.15
2022-08-16T21:09:33.988Z,7.95
2022-08-16T21:12:10.442Z,7.20
2022-08-16T21:14:44.934Z,7.35
2022-08-16T21:17:17.096Z,7.20
2022-08-16T21:19:48.410Z,7.63
2022-08-16T21:22:23.457Z,7.55
2022-08-16T21:24:55.924Z,8.07
2022-08-16T21:27:30.590Z,8.23
2022-08-16T21:30:01.980Z,8.40
2022-08-16T21:32:34.855Z,9.15
2022-08-16T21:35:09.720Z,11.23
2022-08-16T21:37:43.025Z,10.73
2022-08-16T21:40:34.998Z,10.05
2022-08-16T21:43:10.740Z,9.50
2022-08-16T21:48:15.038Z,10.07
2022-08-16T21:50:46.338Z,9.95
2022-08-16T21:53:20.803Z,10.18
2022-08-16T21:55:54.769Z,10.00
2022-08-16T21:58:26.250Z,10.13
2022-08-16T22:00:58.378Z,10.95
2022-08-16T22:03:32.731Z,9.70
2022-08-16T22:06:12.745Z,10.70
2022-08-16T22:08:50.261Z,10.60
2022-08-16T22:11:24.346Z,11.50
2022-08-16T22:13:58.520Z,12.13
2022-08-16T22:16:33.495Z,11.20
2022-08-16T22:19:05.514Z,11.73
2022-08-16T22:21:37.368Z,11.75
2022-08-16T22:24:09.158Z,13.18
2022-08-16T22:26:43.319Z,13.77
2022-08-16T22:29:15.022Z,11.80
2022-08-16T22:31:46.555Z,14.18
2022-08-16T22:34:18.065Z,13.93
2022-08-16T22:36:50.996Z,13.00
2022-08-16T22:39:22.322Z,13.32
2022-08-16T22:41:54.169Z,13.73
2022-08-16T22:44:25.993Z,13.75
2022-08-16T22:46:57.292Z,14.48
2022-08-16T22:49:29.082Z,12.45
2022-08-16T22:52:08.614Z,13.13
2022-08-16T22:54:48.702Z,14.77
2022-08-16T22:57:20.440Z,13.82
2022-08-16T22:59:52.562Z,11.85
2022-08-16T23:02:24.349Z,13.52
2022-08-16T23:04:56.164Z,12.93
2022-08-16T23:07:28.019Z,11.55
2022-08-16T23:10:01.378Z,14.75
2022-08-16T23:12:33.194Z,14.68
2022-08-16T23:15:05.142Z,15.23
2022-08-16T23:17:36.983Z,15.30
2022-08-16T23:20:09.679Z,14.70
2022-08-16T23:23:21.051Z,15.57
2022-08-16T23:25:51.528Z,16.02
2022-08-16T23:28:28.754Z,14.15
2022-08-16T23:31:00.488Z,15.30
2022-08-16T23:33:32.186Z,16.42
2022-08-16T23:36:04.807Z,15.63
2022-08-16T23:38:38.129Z,15.35
2022-08-16T23:41:12.449Z,16.42
2022-08-16T23:43:43.850Z,16.73
2022-08-16T23:46:17.687Z,20.45
2022-08-16T23:50:00.891Z,20.52
2022-08-16T23:51:40.265Z,20.30
2022-08-16T23:54:11.759Z,19.42
2022-08-16T23:56:43.058Z,16.83
2022-08-16T23:59:14.363Z,13.82
